createdAt,value
2022-08-03T00:01:44.549Z,11.70
2022-08-03T00:04:12.516Z,10.40
2022-08-03T00:06:40.348Z,9.60
2022-08-03T00:09:09.022Z,10.10
2022-08-03T00:11:36.936Z,11.50
2022-08-03T00:14:06.183Z,9.20
2022-08-03T00:16:34.451Z,8.60
2022-08-03T00:19:02.385Z,9.50
2022-08-03T00:21:30.272Z,9.00
2022-08-03T00:23:58.147Z,11.80
2022-08-03T00:26:25.877Z,8.70
2022-08-03T00:28:53.742Z,8.90
2022-08-03T00:31:35.246Z,10.00
2022-08-03T00:34:08.152Z,11.70
2022-08-03T00:36:36.334Z,12.00
2022-08-03T00:39:04.268Z,12.90
2022-08-03T00:41:32.271Z,12.00
2022-08-03T00:44:00.178Z,12.40
2022-08-03T00:46:27.911Z,13.90
2022-08-03T00:48:55.698Z,10.70
2022-08-03T00:51:24.415Z,10.80
2022-08-03T00:53:52.162Z,10.10
2022-08-03T00:56:19.868Z,9.60
2022-08-03T00:58:47.827Z,10.70
2022-08-03T01:01:16.331Z,10.50
2022-08-03T01:03:45.737Z,8.20
2022-08-03T01:06:29.231Z,9.50
2022-08-03T01:09:21.335Z,8.80
2022-08-03T01:12:07.887Z,8.90
2022-08-03T01:14:47.222Z,9.00
2022-08-03T01:17:28.999Z,8.70
2022-08-03T01:20:02.953Z,10.30
2022-08-03T01:22:57.978Z,8.80
2022-08-03T01:25:54.238Z,8.70
2022-08-03T01:29:11.068Z,9.50
2022-08-03T01:33:00.780Z,9.90
2022-08-03T01:35:14.401Z,9.40
2022-08-03T01:37:47.942Z,10.30
2022-08-03T01:40:17.587Z,8.70
2022-08-03T01:42:47.872Z,8.70
2022-08-03T01:45:20.002Z,7.90
2022-08-03T01:47:49.832Z,8.10
2022-08-03T01:50:22.841Z,12.90
2022-08-03T01:52:52.092Z,9.70
2022-08-03T01:55:21.899Z,9.90
2022-08-03T01:58:05.163Z,9.80
2022-08-03T02:00:38.651Z,10.80
2022-08-03T02:03:08.780Z,10.40
2022-08-03T02:05:39.866Z,8.60
2022-08-03T02:08:10.784Z,9.00
2022-08-03T02:10:41.490Z,9.40
2022-08-03T02:13:10.733Z,8.70
2022-08-03T02:15:39.375Z,13.60
2022-08-03T02:18:10.009Z,8.30
2022-08-03T02:20:40.039Z,9.00
2022-08-03T02:23:08.594Z,9.30
2022-08-03T02:25:44.791Z,8.20
2022-08-03T02:28:18.517Z,8.20
2022-08-03T02:30:51.863Z,8.30
2022-08-03T02:33:31.820Z,7.90
2022-08-03T02:36:01.257Z,8.50
2022-08-03T02:38:33.800Z,9.70
2022-08-03T02:41:07.401Z,8.70
2022-08-03T02:43:57.653Z,8.40
2022-08-03T02:46:37.855Z,10.90
2022-08-03T02:49:40.929Z,8.30
2022-08-03T02:51:56.722Z,9.40
2022-08-03T02:54:26.682Z,10.80
2022-08-03T02:56:56.964Z,8.90
2022-08-03T02:59:25.758Z,11.40
2022-08-03T03:01:55.201Z,8.30
2022-08-03T03:04:27.580Z,8.10
2022-08-03T03:07:04.398Z,10.30
2022-08-03T03:09:41.916Z,8.20
2022-08-03T03:12:13.234Z,8.20
2022-08-03T03:14:41.370Z,9.00
2022-08-03T03:17:11.536Z,9.70
2022-08-03T03:19:41.053Z,7.60
2022-08-03T03:22:09.775Z,10.10
2022-08-03T03:24:39.914Z,10.70
2022-08-03T03:27:08.179Z,8.20
2022-08-03T03:29:39.366Z,8.00
2022-08-03T03:32:09.138Z,7.90
2022-08-03T03:34:41.158Z,11.50
2022-08-03T03:37:12.385Z,12.20
2022-08-03T03:39:40.306Z,9.20
2022-08-03T03:42:08.263Z,9.70
2022-08-03T03:44:36.614Z,11.60
2022-08-03T03:47:05.020Z,10.90
2022-08-03T03:49:33.007Z,11.10
2022-08-03T03:52:00.813Z,8.40
2022-08-03T03:54:43.009Z,9.20
2022-08-03T03:57:13.669Z,8.80
2022-08-03T03:59:42.635Z,11.80
2022-08-03T04:02:12.430Z,16.70
2022-08-03T04:04:58.907Z,14.40
2022-08-03T04:07:46.139Z,11.70
2022-08-03T04:10:38.880Z,16.00
2022-08-03T04:13:12.392Z,15.50
2022-08-03T04:15:41.484Z,16.20
2022-08-03T04:18:13.973Z,19.00
2022-08-03T04:20:47.818Z,16.90
2022-08-03T04:23:19.305Z,14.00
2022-08-03T04:25:51.750Z,10.10
2022-08-03T04:28:30.871Z,14.70
2022-08-03T04:31:02.485Z,10.20
2022-08-03T04:33:33.602Z,10.40
2022-08-03T04:36:07.167Z,11.50
2022-08-03T04:38:44.180Z,10.40
2022-08-03T04:41:13.191Z,8.50
2022-08-03T04:43:41.979Z,13.90
2022-08-03T04:46:11.444Z,11.30
2022-08-03T04:48:43.532Z,12.00
2022-08-03T04:51:13.648Z,9.20
2022-08-03T04:53:43.402Z,10.90
2022-08-03T04:56:11.170Z,8.70
2022-08-03T04:58:39.756Z,12.10
2022-08-03T05:01:07.770Z,9.00
2022-08-03T05:03:35.506Z,14.80
2022-08-03T05:06:09.741Z,16.20
2022-08-03T05:08:45.903Z,13.20
2022-08-03T05:11:16.355Z,9.10
2022-08-03T05:13:47.046Z,9.10
2022-08-03T05:16:15.270Z,7.90
2022-08-03T05:18:43.565Z,8.10
2022-08-03T05:21:14.211Z,7.70
2022-08-03T05:23:41.911Z,7.90
2022-08-03T05:26:11.913Z,8.50
2022-08-03T05:28:40.453Z,9.50
2022-08-03T05:31:19.568Z,7.60
2022-08-03T05:33:49.142Z,9.80
2022-08-03T05:36:16.958Z,8.40
2022-08-03T05:38:44.914Z,8.10
2022-08-03T05:41:22.765Z,6.70
2022-08-03T05:43:55.591Z,7.00
2022-08-03T05:46:23.714Z,8.40
2022-08-03T05:48:51.659Z,7.50
2022-08-03T05:51:19.656Z,8.20
2022-08-03T05:53:47.413Z,7.20
2022-08-03T05:56:16.620Z,7.40
2022-08-03T05:58:46.952Z,7.80
2022-08-03T06:01:17.065Z,7.00
2022-08-03T06:03:46.386Z,6.90
2022-08-03T06:06:15.063Z,6.90
2022-08-03T06:08:44.398Z,7.00
2022-08-03T06:11:13.152Z,7.10
2022-08-03T06:13:41.304Z,6.70
2022-08-03T06:16:10.114Z,7.10
2022-08-03T06:18:38.822Z,6.90
2022-08-03T06:21:14.495Z,7.80
2022-08-03T06:23:53.905Z,6.80
2022-08-03T06:26:28.533Z,6.70
2022-08-03T06:28:56.674Z,6.60
2022-08-03T06:31:33.121Z,5.80
2022-08-03T06:34:33.715Z,5.90
2022-08-03T06:36:58.513Z,7.40
2022-08-03T06:39:30.215Z,10.60
2022-08-03T06:41:58.262Z,6.50
2022-08-03T06:44:26.263Z,7.00
2022-08-03T06:46:54.174Z,5.40
2022-08-03T06:49:22.233Z,5.60
2022-08-03T06:52:03.463Z,5.30
2022-08-03T06:54:34.519Z,4.90
2022-08-03T06:57:02.359Z,5.30
2022-08-03T07:00:11.053Z,9.30
2022-08-03T07:02:21.480Z,5.60
2022-08-03T07:04:49.807Z,5.10
2022-08-03T07:07:17.931Z,6.50
2022-08-03T07:09:56.963Z,6.00
2022-08-03T07:12:28.155Z,6.10
2022-08-03T07:15:00.715Z,5.80
2022-08-03T07:17:31.311Z,5.60
2022-08-03T07:20:00.444Z,5.20
2022-08-03T07:22:28.562Z,5.00
2022-08-03T07:24:56.855Z,5.40
2022-08-03T07:27:27.144Z,5.00
2022-08-03T07:29:55.558Z,4.90
2022-08-03T07:32:24.744Z,5.50
2022-08-03T07:34:55.795Z,5.10
2022-08-03T07:37:26.228Z,5.20
2022-08-03T07:39:53.884Z,4.60
2022-08-03T07:42:23.436Z,5.70
2022-08-03T07:44:51.352Z,5.30
2022-08-03T07:47:22.503Z,4.10
2022-08-03T07:49:50.922Z,4.60
2022-08-03T07:52:37.637Z,7.90
2022-08-03T07:55:07.058Z,4.10
2022-08-03T07:57:35.363Z,4.70
2022-08-03T08:00:06.669Z,4.60
2022-08-03T08:02:34.600Z,4.30
2022-08-03T08:05:05.776Z,4.00
2022-08-03T08:07:34.345Z,3.60
2022-08-03T08:10:02.245Z,3.90
2022-08-03T08:12:30.074Z,5.60
2022-08-03T08:14:57.975Z,3.40
2022-08-03T08:17:25.802Z,3.70
2022-08-03T08:19:53.781Z,4.00
2022-08-03T08:22:30.283Z,4.00
2022-08-03T08:25:01.018Z,3.90
2022-08-03T08:28:22.220Z,4.30
2022-08-03T08:30:20.256Z,3.90
2022-08-03T08:32:49.540Z,6.00
2022-08-03T08:35:18.455Z,3.80
2022-08-03T08:37:50.900Z,4.20
2022-08-03T08:40:22.912Z,4.40
2022-08-03T08:42:58.564Z,4.10
2022-08-03T08:45:27.700Z,5.00
2022-08-03T08:48:01.826Z,4.70
2022-08-03T08:50:32.040Z,3.60
2022-08-03T08:53:03.878Z,3.80
2022-08-03T08:55:58.406Z,3.80
2022-08-03T08:58:22.606Z,4.20
2022-08-03T09:00:51.242Z,4.30
2022-08-03T09:03:29.164Z,3.10
2022-08-03T09:06:03.320Z,3.50
2022-08-03T09:08:32.470Z,3.80
2022-08-03T09:11:00.786Z,5.90
2022-08-03T09:13:30.572Z,3.60
2022-08-03T09:16:12.509Z,4.10
2022-08-03T09:18:45.895Z,3.90
2022-08-03T09:21:33.460Z,3.20
2022-08-03T09:24:07.013Z,43.50
2022-08-03T09:26:38.422Z,3.90
2022-08-03T09:29:15.027Z,3.70
2022-08-03T09:31:46.129Z,4.00
2022-08-03T09:34:16.548Z,4.40
2022-08-03T09:36:46.636Z,5.50
2022-08-03T09:39:19.664Z,4.70
2022-08-03T09:42:14.939Z,3.70
2022-08-03T09:44:46.493Z,5.70
2022-08-03T09:47:28.416Z,5.80
2022-08-03T09:50:02.401Z,3.70
2022-08-03T09:52:38.614Z,2.90
2022-08-03T09:56:33.009Z,5.20
2022-08-03T09:58:10.545Z,4.60
2022-08-03T10:00:59.091Z,3.40
2022-08-03T10:03:29.933Z,3.60
2022-08-03T10:05:59.939Z,5.30
2022-08-03T10:08:28.116Z,23.80
2022-08-03T10:10:57.989Z,3.30
2022-08-03T10:13:25.904Z,2.80
2022-08-03T10:16:23.664Z,5.90
2022-08-03T10:18:41.286Z,2.90
2022-08-03T10:21:16.169Z,3.80
2022-08-03T10:23:43.932Z,3.80
2022-08-03T10:26:16.502Z,3.90
2022-08-03T10:28:50.389Z,3.00
2022-08-03T10:31:20.607Z,8.30
2022-08-03T10:33:53.277Z,3.90
2022-08-03T10:36:24.565Z,3.90
2022-08-03T10:38:53.848Z,6.50
2022-08-03T10:41:23.357Z,2.70
2022-08-03T10:43:58.756Z,5.30
2022-08-03T10:46:27.733Z,2.40
2022-08-03T10:48:56.912Z,3.70
2022-08-03T10:51:29.166Z,3.50
2022-08-03T10:53:56.901Z,2.40
2022-08-03T10:56:51.804Z,3.30
2022-08-03T10:59:40.249Z,20.20
2022-08-03T11:02:10.774Z,5.30
2022-08-03T11:04:38.497Z,4.00
2022-08-03T11:07:18.577Z,7.20
2022-08-03T11:09:48.698Z,2.60
2022-08-03T11:12:28.438Z,5.10
2022-08-03T11:15:06.030Z,2.40
2022-08-03T11:17:46.270Z,2.50
2022-08-03T11:20:58.681Z,5.80
2022-08-03T11:24:02.662Z,2.80
2022-08-03T11:26:34.778Z,4.40
2022-08-03T11:29:29.081Z,3.70
2022-08-03T11:31:57.566Z,2.70
2022-08-03T11:34:26.419Z,4.40
2022-08-03T11:37:22.976Z,2.40
2022-08-03T11:39:54.803Z,2.70
2022-08-03T11:42:22.561Z,3.60
2022-08-03T11:44:51.693Z,4.10
2022-08-03T11:47:21.806Z,3.30
2022-08-03T11:49:51.408Z,2.70
2022-08-03T11:52:27.216Z,2.80
2022-08-03T11:54:57.275Z,2.70
2022-08-03T11:59:16.434Z,3.10
2022-08-03T12:00:23.620Z,3.80
2022-08-03T12:02:58.897Z,4.10
2022-08-03T12:05:52.026Z,3.40
2022-08-03T12:08:32.623Z,3.60
2022-08-03T12:11:05.756Z,2.70
2022-08-03T12:14:45.267Z,4.10
2022-08-03T12:16:31.358Z,4.20
2022-08-03T12:19:01.414Z,4.20
2022-08-03T12:21:30.000Z,3.30
2022-08-03T12:24:04.088Z,2.80
2022-08-03T12:26:59.506Z,3.40
2022-08-03T12:29:27.828Z,4.20
2022-08-03T12:31:56.313Z,3.20
2022-08-03T12:34:24.307Z,3.50
2022-08-03T12:36:55.920Z,3.80
2022-08-03T12:39:25.637Z,3.20
2022-08-03T12:41:55.306Z,3.40
2022-08-03T12:44:34.798Z,3.60
2022-08-03T12:47:06.888Z,7.80
2022-08-03T12:49:47.986Z,4.00
2022-08-03T12:52:17.900Z,4.20
2022-08-03T12:54:59.085Z,3.70
2022-08-03T12:57:41.245Z,3.20
2022-08-03T13:00:28.681Z,3.60
2022-08-03T13:05:55.736Z,3.00
2022-08-03T13:08:25.718Z,5.30
2022-08-03T13:10:53.739Z,5.60
2022-08-03T13:13:40.576Z,3.70
2022-08-03T13:16:08.251Z,3.90
2022-08-03T13:18:36.087Z,5.00
2022-08-03T13:21:04.071Z,6.60
2022-08-03T13:23:32.108Z,3.30
2022-08-03T13:26:00.103Z,3.00
2022-08-03T13:28:27.811Z,3.90
2022-08-03T13:30:55.674Z,4.60
2022-08-03T13:33:23.517Z,3.00
2022-08-03T13:35:51.436Z,4.90
2022-08-03T13:38:21.615Z,5.40
2022-08-03T13:40:55.036Z,3.90
2022-08-03T13:43:24.133Z,2.80
2022-08-03T13:45:56.548Z,4.80
2022-08-03T13:48:36.966Z,3.00
2022-08-03T13:51:21.689Z,3.50
2022-08-03T13:53:51.492Z,2.90
2022-08-03T13:56:19.445Z,3.80
2022-08-03T13:58:47.193Z,3.00
2022-08-03T14:01:15.017Z,3.50
2022-08-03T14:03:42.910Z,4.60
2022-08-03T14:06:11.469Z,2.90
2022-08-03T14:08:39.265Z,3.60
2022-08-03T14:11:07.409Z,15.90
2022-08-03T14:13:35.412Z,3.30
2022-08-03T14:16:03.213Z,4.40
2022-08-03T14:18:33.956Z,2.90
2022-08-03T14:21:07.359Z,4.00
2022-08-03T14:23:37.914Z,5.30
2022-08-03T14:26:08.217Z,3.00
2022-08-03T14:28:36.579Z,9.40
2022-08-03T14:31:08.382Z,3.50
2022-08-03T14:33:52.714Z,3.20
2022-08-03T14:36:20.559Z,3.70
2022-08-03T14:38:48.530Z,3.00
2022-08-03T14:41:19.820Z,2.90
2022-08-03T14:44:01.612Z,4.90
2022-08-03T14:46:31.250Z,2.50
2022-08-03T14:50:33.697Z,3.30
2022-08-03T14:51:53.452Z,3.20
2022-08-03T14:54:22.953Z,6.40
2022-08-03T14:56:50.978Z,3.50
2022-08-03T14:59:18.692Z,5.00
2022-08-03T15:02:04.799Z,2.60
2022-08-03T15:04:34.817Z,3.00
2022-08-03T15:07:02.545Z,4.70
2022-08-03T15:09:30.426Z,5.20
2022-08-03T15:11:58.358Z,3.90
2022-08-03T15:14:32.309Z,3.00
2022-08-03T15:17:01.647Z,3.60
2022-08-03T15:20:01.999Z,10.70
2022-08-03T15:22:20.513Z,3.40
2022-08-03T15:24:53.950Z,5.10
2022-08-03T15:27:22.723Z,3.20
2022-08-03T15:30:07.396Z,5.40
2022-08-03T15:32:38.087Z,3.60
2022-08-03T15:35:06.377Z,3.00
2022-08-03T15:37:34.135Z,2.80
2022-08-03T15:40:02.396Z,4.60
2022-08-03T15:42:31.352Z,6.30
2022-08-03T15:44:59.601Z,3.70
2022-08-03T15:47:27.683Z,2.90
2022-08-03T15:49:55.594Z,6.20
2022-08-03T15:52:23.340Z,3.00
2022-08-03T15:54:51.371Z,4.80
2022-08-03T15:57:20.121Z,3.30
2022-08-03T15:59:48.166Z,4.60
2022-08-03T16:02:16.255Z,2.80
2022-08-03T16:04:44.017Z,3.30
2022-08-03T16:07:12.886Z,3.90
2022-08-03T16:09:45.652Z,3.10
2022-08-03T16:12:16.315Z,3.60
2022-08-03T16:14:53.772Z,2.60
2022-08-03T16:17:23.700Z,3.80
2022-08-03T16:19:54.097Z,3.50
2022-08-03T16:22:24.755Z,3.40
2022-08-03T16:24:54.359Z,4.40
2022-08-03T16:27:37.088Z,4.10
2022-08-03T16:30:12.939Z,2.90
2022-08-03T16:32:40.669Z,5.80
2022-08-03T16:35:08.906Z,2.80
2022-08-03T16:37:38.543Z,6.60
2022-08-03T16:40:17.403Z,4.50
2022-08-03T16:42:47.744Z,3.10
2022-08-03T16:45:15.536Z,2.70
2022-08-03T16:47:43.274Z,4.20
2022-08-03T16:50:17.200Z,3.70
2022-08-03T16:52:48.510Z,3.60
2022-08-03T16:55:42.977Z,3.10
2022-08-03T16:58:05.808Z,2.90
2022-08-03T17:00:41.591Z,6.20
2022-08-03T17:03:25.564Z,4.80
2022-08-03T17:05:54.133Z,2.50
2022-08-03T17:08:27.636Z,6.20
2022-08-03T17:10:56.330Z,4.50
2022-08-03T17:13:39.294Z,3.50
2022-08-03T17:16:10.584Z,3.10
2022-08-03T17:18:47.561Z,3.40
2022-08-03T17:21:17.549Z,3.80
2022-08-03T17:23:57.614Z,4.50
2022-08-03T17:26:30.595Z,3.40
2022-08-03T17:29:11.438Z,3.40
2022-08-03T17:31:48.459Z,6.20
2022-08-03T17:34:19.339Z,3.90
2022-08-03T17:37:05.577Z,3.10
2022-08-03T17:42:31.186Z,4.00
2022-08-03T17:45:03.554Z,5.20
2022-08-03T17:47:41.418Z,3.70
2022-08-03T17:50:23.912Z,6.10
2022-08-03T17:53:14.411Z,11.50
2022-08-03T17:56:44.651Z,7.20
2022-08-03T17:59:16.407Z,4.40
2022-08-03T18:02:41.209Z,3.70
2022-08-03T18:05:18.300Z,4.70
2022-08-03T18:08:01.579Z,6.70
2022-08-03T18:10:36.316Z,4.90
2022-08-03T18:13:30.219Z,4.30
2022-08-03T18:16:06.971Z,5.80
2022-08-03T18:18:43.233Z,5.90
2022-08-03T18:21:17.044Z,3.20
2022-08-03T18:23:50.289Z,8.60
2022-08-03T18:26:20.610Z,4.20
2022-08-03T18:28:53.521Z,4.70
2022-08-03T18:31:59.847Z,14.30
2022-08-03T18:34:32.558Z,14.40
2022-08-03T18:37:07.160Z,11.10
2022-08-03T18:39:49.884Z,9.80
2022-08-03T18:42:19.663Z,10.20
2022-08-03T18:44:54.459Z,11.40
2022-08-03T18:47:27.481Z,17.80
2022-08-03T18:50:36.729Z,8.30
2022-08-03T18:54:02.128Z,9.00
2022-08-03T18:56:53.714Z,8.60
2022-08-03T18:59:29.991Z,7.10
2022-08-03T19:02:06.867Z,4.80
2022-08-03T19:04:52.850Z,11.60
2022-08-03T19:07:27.109Z,11.00
2022-08-03T19:09:59.831Z,6.80
2022-08-03T19:12:39.756Z,5.90
2022-08-03T19:15:13.783Z,9.10
2022-08-03T19:17:53.213Z,5.40
2022-08-03T19:20:24.960Z,6.80
2022-08-03T19:22:55.386Z,4.80
2022-08-03T19:25:34.973Z,5.40
2022-08-03T19:28:06.258Z,5.30
2022-08-03T19:30:38.530Z,10.20
2022-08-03T19:33:09.983Z,7.10
2022-08-03T19:35:52.081Z,6.70
2022-08-03T19:38:28.501Z,7.20
2022-08-03T19:41:01.586Z,6.90
2022-08-03T19:43:49.592Z,6.10
2022-08-03T19:46:30.209Z,6.40
2022-08-03T19:49:15.321Z,11.00
2022-08-03T19:51:58.893Z,6.60
2022-08-03T19:54:53.785Z,8.80
2022-08-03T19:57:28.585Z,8.50
2022-08-03T19:59:57.231Z,9.40
2022-08-03T20:02:26.359Z,9.50
2022-08-03T20:04:57.359Z,12.80
2022-08-03T20:07:27.054Z,11.30
2022-08-03T20:09:56.432Z,11.70
2022-08-03T20:12:27.958Z,14.20
2022-08-03T20:14:58.061Z,11.80
2022-08-03T20:17:54.747Z,13.90
2022-08-03T20:20:19.975Z,11.30
2022-08-03T20:22:52.910Z,12.10
2022-08-03T20:25:37.615Z,13.10
2022-08-03T20:28:14.210Z,8.80
2022-08-03T20:30:47.194Z,11.10
2022-08-03T20:33:18.877Z,57.40
2022-08-03T20:35:49.629Z,22.10
2022-08-03T20:38:19.055Z,21.50
2022-08-03T20:40:48.391Z,18.70
2022-08-03T20:43:17.085Z,15.80
2022-08-03T20:45:59.014Z,12.20
2022-08-03T20:48:37.441Z,10.60
2022-08-03T20:51:19.657Z,16.90
2022-08-03T20:53:57.208Z,18.60
2022-08-03T20:56:43.804Z,17.90
2022-08-03T20:59:19.257Z,18.00
2022-08-03T21:01:47.425Z,13.60
2022-08-03T21:04:15.825Z,14.50
2022-08-03T21:07:00.665Z,19.90
2022-08-03T21:09:41.580Z,15.10
2022-08-03T21:13:08.185Z,15.70
2022-08-03T21:15:05.470Z,23.00
2022-08-03T21:17:40.896Z,26.50
2022-08-03T21:20:11.296Z,21.80
2022-08-03T21:22:43.509Z,25.50
2022-08-03T21:25:14.831Z,19.30
2022-08-03T21:27:43.339Z,29.30
2022-08-03T21:30:12.126Z,15.60
2022-08-03T21:32:43.185Z,17.00
2022-08-03T21:35:12.749Z,12.20
2022-08-03T21:37:41.845Z,18.00
2022-08-03T21:40:12.207Z,16.70
2022-08-03T21:42:44.002Z,16.40
2022-08-03T21:45:17.308Z,15.80
2022-08-03T21:47:47.396Z,11.80
2022-08-03T21:50:15.905Z,10.00
2022-08-03T21:52:47.895Z,13.30
2022-08-03T21:55:20.423Z,15.70
2022-08-03T21:57:53.151Z,15.20
2022-08-03T22:00:23.452Z,16.90
2022-08-03T22:02:55.351Z,15.30
2022-08-03T22:05:42.733Z,16.60
2022-08-03T22:08:14.920Z,14.50
2022-08-03T22:10:46.699Z,10.90
2022-08-03T22:13:21.932Z,14.20
2022-08-03T22:16:05.770Z,10.10
2022-08-03T22:18:40.308Z,14.20
2022-08-03T22:21:11.687Z,11.80
2022-08-03T22:23:48.528Z,10.30
2022-08-03T22:26:34.679Z,11.50
2022-08-03T22:29:08.058Z,9.80
2022-08-03T22:31:58.472Z,10.90
2022-08-03T22:34:27.168Z,9.90
2022-08-03T22:37:01.304Z,13.20
2022-08-03T22:39:30.091Z,10.70
2022-08-03T22:42:01.556Z,9.80
2022-08-03T22:44:29.768Z,13.80
2022-08-03T22:46:58.522Z,10.40
2022-08-03T22:49:28.353Z,9.20
2022-08-03T22:51:56.299Z,8.80
2022-08-03T22:54:24.390Z,9.30
2022-08-03T22:56:52.395Z,9.70
2022-08-03T22:59:38.919Z,11.80
2022-08-03T23:02:21.324Z,10.30
2022-08-03T23:04:57.399Z,9.90
2022-08-03T23:07:32.160Z,13.90
2022-08-03T23:10:03.825Z,11.30
2022-08-03T23:12:35.077Z,9.50
2022-08-03T23:15:08.511Z,11.00
2022-08-03T23:17:58.103Z,9.30
2022-08-03T23:20:27.066Z,10.90
2022-08-03T23:22:57.962Z,9.10
2022-08-03T23:25:26.894Z,9.80
2022-08-03T23:28:05.027Z,9.60
2022-08-03T23:30:37.382Z,10.10
2022-08-03T23:33:06.697Z,9.10
2022-08-03T23:36:20.149Z,9.60
2022-08-03T23:38:43.665Z,11.40
2022-08-03T23:41:13.707Z,10.60
2022-08-03T23:43:52.263Z,12.70
2022-08-03T23:46:22.732Z,11.80
2022-08-03T23:48:51.189Z,10.30
2022-08-03T23:51:44.721Z,9.50
2022-08-03T23:54:44.324Z,10.50
2022-08-03T23:57:40.022Z,10.30
